sensor_id;sensor_type;location;lat;lon;timestamp;P1;durP1;ratioP1;P2;durP2;ratioP2
46653;SDS011;38960;51.074;17.004;2023-01-09T00:00:58;32.88;;;18.55;;
46653;SDS011;38960;51.074;17.004;2023-01-09T00:03:24;31.88;;;18.52;;
46653;SDS011;38960;51.074;17.004;2023-01-09T00:05:49;31.83;;;19.67;;
46653;SDS011;38960;51.074;17.004;2023-01-09T00:08:15;33.38;;;19.30;;
46653;SDS011;38960;51.074;17.004;2023-01-09T00:10:40;33.38;;;20.65;;
46653;SDS011;38960;51.074;17.004;2023-01-09T00:13:06;31.50;;;19.00;;
46653;SDS011;38960;51.074;17.004;2023-01-09T00:15:34;33.85;;;20.55;;
46653;SDS011;38960;51.074;17.004;2023-01-09T00:17:59;33.97;;;20.08;;
46653;SDS011;38960;51.074;17.004;2023-01-09T00:20:25;35.10;;;19.83;;
46653;SDS011;38960;51.074;17.004;2023-01-09T00:22:50;33.03;;;18.57;;
46653;SDS011;38960;51.074;17.004;2023-01-09T00:25:16;34.35;;;19.90;;
46653;SDS011;38960;51.074;17.004;2023-01-09T00:27:42;33.60;;;19.73;;
46653;SDS011;38960;51.074;17.004;2023-01-09T00:30:07;37.05;;;19.23;;
46653;SDS011;38960;51.074;17.004;2023-01-09T00:32:34;32.47;;;18.90;;
46653;SDS011;38960;51.074;17.004;2023-01-09T00:34:59;32.70;;;19.10;;
46653;SDS011;38960;51.074;17.004;2023-01-09T00:37:25;28.37;;;18.73;;
46653;SDS011;38960;51.074;17.004;2023-01-09T00:39:50;36.80;;;20.27;;
46653;SDS011;38960;51.074;17.004;2023-01-09T00:42:18;39.10;;;21.37;;
46653;SDS011;38960;51.074;17.004;2023-01-09T00:44:56;36.40;;;21.43;;
46653;SDS011;38960;51.074;17.004;2023-01-09T00:47:29;32.33;;;19.97;;
46653;SDS011;38960;51.074;17.004;2023-01-09T00:50:17;37.67;;;22.17;;
46653;SDS011;38960;51.074;17.004;2023-01-09T00:52:45;41.80;;;23.50;;
46653;SDS011;38960;51.074;17.004;2023-01-09T00:55:11;39.10;;;23.33;;
46653;SDS011;38960;51.074;17.004;2023-01-09T00:57:37;38.70;;;21.60;;
46653;SDS011;38960;51.074;17.004;2023-01-09T01:00:02;41.57;;;24.63;;
46653;SDS011;38960;51.074;17.004;2023-01-09T01:02:29;48.45;;;26.42;;
46653;SDS011;38960;51.074;17.004;2023-01-09T01:04:54;40.27;;;24.47;;
46653;SDS011;38960;51.074;17.004;2023-01-09T01:07:38;42.55;;;23.13;;
46653;SDS011;38960;51.074;17.004;2023-01-09T01:10:04;40.90;;;24.20;;
46653;SDS011;38960;51.074;17.004;2023-01-09T01:12:41;46.72;;;26.65;;
46653;SDS011;38960;51.074;17.004;2023-01-09T01:15:08;44.77;;;26.93;;
46653;SDS011;38960;51.074;17.004;2023-01-09T01:17:35;44.70;;;25.97;;
46653;SDS011;38960;51.074;17.004;2023-01-09T01:20:02;43.50;;;26.37;;
46653;SDS011;38960;51.074;17.004;2023-01-09T01:22:28;56.63;;;28.10;;
46653;SDS011;38960;51.074;17.004;2023-01-09T01:24:54;42.17;;;24.90;;
46653;SDS011;38960;51.074;17.004;2023-01-09T01:27:19;44.00;;;25.60;;
46653;SDS011;38960;51.074;17.004;2023-01-09T01:29:45;41.83;;;24.57;;
46653;SDS011;38960;51.074;17.004;2023-01-09T01:32:10;43.55;;;26.08;;
46653;SDS011;38960;51.074;17.004;2023-01-09T01:34:36;42.73;;;24.60;;
46653;SDS011;38960;51.074;17.004;2023-01-09T01:37:02;46.03;;;25.83;;
46653;SDS011;38960;51.074;17.004;2023-01-09T01:39:27;44.20;;;25.30;;
46653;SDS011;38960;51.074;17.004;2023-01-09T01:41:53;43.03;;;23.87;;
46653;SDS011;38960;51.074;17.004;2023-01-09T01:47:27;42.73;;;24.60;;
46653;SDS011;38960;51.074;17.004;2023-01-09T01:52:47;43.50;;;25.37;;
46653;SDS011;38960;51.074;17.004;2023-01-09T01:55:17;42.63;;;24.27;;
46653;SDS011;38960;51.074;17.004;2023-01-09T01:57:45;46.37;;;25.13;;
46653;SDS011;38960;51.074;17.004;2023-01-09T02:00:12;43.73;;;26.07;;
46653;SDS011;38960;51.074;17.004;2023-01-09T02:02:38;48.57;;;25.90;;
46653;SDS011;38960;51.074;17.004;2023-01-09T02:05:04;43.53;;;24.60;;
46653;SDS011;38960;51.074;17.004;2023-01-09T02:07:30;42.17;;;25.77;;
46653;SDS011;38960;51.074;17.004;2023-01-09T02:09:56;44.33;;;26.13;;
46653;SDS011;38960;51.074;17.004;2023-01-09T02:12:23;43.47;;;25.30;;
46653;SDS011;38960;51.074;17.004;2023-01-09T02:15:00;46.17;;;25.50;;
46653;SDS011;38960;51.074;17.004;2023-01-09T02:26:10;41.43;;;25.63;;
46653;SDS011;38960;51.074;17.004;2023-01-09T02:37:44;49.30;;;26.70;;
46653;SDS011;38960;51.074;17.004;2023-01-09T02:40:43;45.47;;;27.50;;
46653;SDS011;38960;51.074;17.004;2023-01-09T02:43:14;45.50;;;25.43;;
46653;SDS011;38960;51.074;17.004;2023-01-09T02:45:40;49.85;;;26.80;;
46653;SDS011;38960;51.074;17.004;2023-01-09T02:48:07;43.83;;;25.23;;
46653;SDS011;38960;51.074;17.004;2023-01-09T02:50:35;42.23;;;25.07;;
46653;SDS011;38960;51.074;17.004;2023-01-09T03:01:21;44.43;;;24.23;;
46653;SDS011;38960;51.074;17.004;2023-01-09T03:06:29;37.93;;;23.07;;
46653;SDS011;38960;51.074;17.004;2023-01-09T03:09:00;43.80;;;23.70;;
46653;SDS011;38960;51.074;17.004;2023-01-09T03:11:30;36.17;;;21.67;;
46653;SDS011;38960;51.074;17.004;2023-01-09T03:14:08;44.33;;;23.73;;
46653;SDS011;38960;51.074;17.004;2023-01-09T03:16:39;39.73;;;22.43;;
46653;SDS011;38960;51.074;17.004;2023-01-09T03:19:10;39.87;;;22.63;;
46653;SDS011;38960;51.074;17.004;2023-01-09T03:21:38;36.57;;;22.20;;
46653;SDS011;38960;51.074;17.004;2023-01-09T03:24:04;41.93;;;21.63;;
46653;SDS011;38960;51.074;17.004;2023-01-09T03:26:29;36.47;;;21.60;;
46653;SDS011;38960;51.074;17.004;2023-01-09T03:28:56;36.60;;;22.23;;
46653;SDS011;38960;51.074;17.004;2023-01-09T03:31:22;39.47;;;21.93;;
46653;SDS011;38960;51.074;17.004;2023-01-09T03:33:48;40.73;;;21.33;;
46653;SDS011;38960;51.074;17.004;2023-01-09T03:36:14;34.27;;;21.00;;
46653;SDS011;38960;51.074;17.004;2023-01-09T03:38:41;36.83;;;21.13;;
46653;SDS011;38960;51.074;17.004;2023-01-09T03:41:07;29.93;;;19.03;;
46653;SDS011;38960;51.074;17.004;2023-01-09T03:43:32;36.40;;;19.97;;
46653;SDS011;38960;51.074;17.004;2023-01-09T03:45:58;34.70;;;20.87;;
46653;SDS011;38960;51.074;17.004;2023-01-09T03:48:24;34.80;;;20.83;;
46653;SDS011;38960;51.074;17.004;2023-01-09T03:50:50;35.90;;;21.40;;
46653;SDS011;38960;51.074;17.004;2023-01-09T03:53:16;36.07;;;21.90;;
46653;SDS011;38960;51.074;17.004;2023-01-09T03:55:44;34.53;;;20.87;;
46653;SDS011;38960;51.074;17.004;2023-01-09T03:58:10;31.50;;;19.10;;
46653;SDS011;38960;51.074;17.004;2023-01-09T04:00:36;33.63;;;20.00;;
46653;SDS011;38960;51.074;17.004;2023-01-09T04:03:03;32.57;;;18.17;;
46653;SDS011;38960;51.074;17.004;2023-01-09T04:05:29;31.60;;;18.57;;
46653;SDS011;38960;51.074;17.004;2023-01-09T04:07:54;30.70;;;18.33;;
46653;SDS011;38960;51.074;17.004;2023-01-09T04:10:20;36.30;;;19.20;;
46653;SDS011;38960;51.074;17.004;2023-01-09T04:12:45;32.47;;;18.57;;
46653;SDS011;38960;51.074;17.004;2023-01-09T04:15:11;35.13;;;19.43;;
46653;SDS011;38960;51.074;17.004;2023-01-09T04:17:36;37.47;;;20.47;;
46653;SDS011;38960;51.074;17.004;2023-01-09T04:20:02;35.07;;;19.47;;
46653;SDS011;38960;51.074;17.004;2023-01-09T04:22:28;32.17;;;19.43;;
46653;SDS011;38960;51.074;17.004;2023-01-09T04:24:55;33.37;;;19.50;;
46653;SDS011;38960;51.074;17.004;2023-01-09T04:27:21;37.87;;;20.20;;
46653;SDS011;38960;51.074;17.004;2023-01-09T04:29:46;37.23;;;21.47;;
46653;SDS011;38960;51.074;17.004;2023-01-09T04:32:12;30.70;;;18.97;;
46653;SDS011;38960;51.074;17.004;2023-01-09T04:34:37;37.03;;;22.33;;
46653;SDS011;38960;51.074;17.004;2023-01-09T04:37:03;36.23;;;20.60;;
46653;SDS011;38960;51.074;17.004;2023-01-09T04:39:29;35.70;;;21.13;;
46653;SDS011;38960;51.074;17.004;2023-01-09T04:41:54;35.57;;;20.83;;
46653;SDS011;38960;51.074;17.004;2023-01-09T04:44:21;36.87;;;21.90;;
46653;SDS011;38960;51.074;17.004;2023-01-09T04:46:50;35.87;;;20.97;;
46653;SDS011;38960;51.074;17.004;2023-01-09T04:49:16;33.27;;;19.60;;
46653;SDS011;38960;51.074;17.004;2023-01-09T04:51:41;38.53;;;21.53;;
46653;SDS011;38960;51.074;17.004;2023-01-09T04:54:07;34.07;;;19.87;;
46653;SDS011;38960;51.074;17.004;2023-01-09T04:56:33;40.07;;;22.07;;
46653;SDS011;38960;51.074;17.004;2023-01-09T04:58:58;37.40;;;21.40;;
46653;SDS011;38960;51.074;17.004;2023-01-09T05:01:24;39.83;;;22.17;;
46653;SDS011;38960;51.074;17.004;2023-01-09T05:03:49;37.20;;;22.47;;
46653;SDS011;38960;51.074;17.004;2023-01-09T05:06:15;39.77;;;24.77;;
46653;SDS011;38960;51.074;17.004;2023-01-09T05:08:40;36.07;;;22.20;;
46653;SDS011;38960;51.074;17.004;2023-01-09T05:11:06;36.57;;;21.63;;
46653;SDS011;38960;51.074;17.004;2023-01-09T05:13:31;37.13;;;21.80;;
46653;SDS011;38960;51.074;17.004;2023-01-09T05:15:57;35.13;;;20.50;;
46653;SDS011;38960;51.074;17.004;2023-01-09T05:18:22;39.07;;;22.93;;
46653;SDS011;38960;51.074;17.004;2023-01-09T05:20:48;48.27;;;24.50;;
46653;SDS011;38960;51.074;17.004;2023-01-09T05:23:14;38.33;;;23.07;;
46653;SDS011;38960;51.074;17.004;2023-01-09T05:25:39;36.47;;;22.27;;
46653;SDS011;38960;51.074;17.004;2023-01-09T05:28:05;38.40;;;21.50;;
46653;SDS011;38960;51.074;17.004;2023-01-09T05:30:30;39.03;;;22.73;;
46653;SDS011;38960;51.074;17.004;2023-01-09T05:32:56;38.80;;;22.93;;
46653;SDS011;38960;51.074;17.004;2023-01-09T05:35:21;34.40;;;21.50;;
46653;SDS011;38960;51.074;17.004;2023-01-09T05:37:47;37.63;;;21.83;;
46653;SDS011;38960;51.074;17.004;2023-01-09T05:40:13;36.43;;;20.43;;
46653;SDS011;38960;51.074;17.004;2023-01-09T05:42:38;36.73;;;21.77;;
46653;SDS011;38960;51.074;17.004;2023-01-09T05:45:04;40.03;;;23.07;;
46653;SDS011;38960;51.074;17.004;2023-01-09T05:47:30;40.70;;;22.30;;
46653;SDS011;38960;51.074;17.004;2023-01-09T05:49:56;39.40;;;21.70;;
46653;SDS011;38960;51.074;17.004;2023-01-09T05:52:22;35.43;;;20.50;;
46653;SDS011;38960;51.074;17.004;2023-01-09T05:54:48;34.50;;;20.03;;
46653;SDS011;38960;51.074;17.004;2023-01-09T05:57:14;35.33;;;20.10;;
46653;SDS011;38960;51.074;17.004;2023-01-09T05:59:39;36.00;;;20.47;;
46653;SDS011;38960;51.074;17.004;2023-01-09T06:02:05;46.47;;;23.27;;
46653;SDS011;38960;51.074;17.004;2023-01-09T06:04:30;43.63;;;22.27;;
46653;SDS011;38960;51.074;17.004;2023-01-09T06:06:56;44.63;;;22.80;;
46653;SDS011;38960;51.074;17.004;2023-01-09T06:09:21;42.27;;;22.50;;
46653;SDS011;38960;51.074;17.004;2023-01-09T06:11:47;37.23;;;20.90;;
46653;SDS011;38960;51.074;17.004;2023-01-09T06:14:13;32.80;;;20.80;;
46653;SDS011;38960;51.074;17.004;2023-01-09T06:16:38;32.47;;;19.63;;
46653;SDS011;38960;51.074;17.004;2023-01-09T06:19:04;33.57;;;20.40;;
46653;SDS011;38960;51.074;17.004;2023-01-09T06:21:31;30.40;;;19.50;;
46653;SDS011;38960;51.074;17.004;2023-01-09T06:23:58;31.73;;;19.80;;
46653;SDS011;38960;51.074;17.004;2023-01-09T06:26:24;32.60;;;19.43;;
46653;SDS011;38960;51.074;17.004;2023-01-09T06:28:50;31.80;;;19.27;;
46653;SDS011;38960;51.074;17.004;2023-01-09T06:31:17;29.20;;;19.37;;
46653;SDS011;38960;51.074;17.004;2023-01-09T06:33:42;33.57;;;20.17;;
46653;SDS011;38960;51.074;17.004;2023-01-09T06:36:08;30.37;;;17.87;;
46653;SDS011;38960;51.074;17.004;2023-01-09T06:38:33;28.10;;;18.57;;
46653;SDS011;38960;51.074;17.004;2023-01-09T06:40:59;29.00;;;18.67;;
46653;SDS011;38960;51.074;17.004;2023-01-09T06:43:24;34.53;;;19.13;;
46653;SDS011;38960;51.074;17.004;2023-01-09T06:45:50;37.00;;;19.77;;
46653;SDS011;38960;51.074;17.004;2023-01-09T06:48:15;33.20;;;20.40;;
46653;SDS011;38960;51.074;17.004;2023-01-09T06:50:41;30.17;;;18.80;;
46653;SDS011;38960;51.074;17.004;2023-01-09T06:53:06;30.87;;;18.80;;
46653;SDS011;38960;51.074;17.004;2023-01-09T06:55:32;34.70;;;19.70;;
46653;SDS011;38960;51.074;17.004;2023-01-09T06:57:58;29.10;;;18.23;;
46653;SDS011;38960;51.074;17.004;2023-01-09T07:00:23;32.13;;;18.53;;
46653;SDS011;38960;51.074;17.004;2023-01-09T07:02:49;30.47;;;18.40;;
46653;SDS011;38960;51.074;17.004;2023-01-09T07:05:15;31.40;;;20.23;;
46653;SDS011;38960;51.074;17.004;2023-01-09T07:07:40;32.87;;;19.80;;
46653;SDS011;38960;51.074;17.004;2023-01-09T07:10:06;31.53;;;19.73;;
46653;SDS011;38960;51.074;17.004;2023-01-09T07:12:32;32.07;;;19.93;;
46653;SDS011;38960;51.074;17.004;2023-01-09T07:14:58;32.33;;;20.33;;
46653;SDS011;38960;51.074;17.004;2023-01-09T07:17:23;34.50;;;20.50;;
46653;SDS011;38960;51.074;17.004;2023-01-09T07:19:49;37.47;;;21.43;;
46653;SDS011;38960;51.074;17.004;2023-01-09T07:22:15;30.30;;;19.33;;
46653;SDS011;38960;51.074;17.004;2023-01-09T07:24:41;30.23;;;19.07;;
46653;SDS011;38960;51.074;17.004;2023-01-09T07:27:08;31.90;;;19.97;;
46653;SDS011;38960;51.074;17.004;2023-01-09T07:29:34;33.30;;;20.03;;
46653;SDS011;38960;51.074;17.004;2023-01-09T07:32:00;34.10;;;20.23;;
46653;SDS011;38960;51.074;17.004;2023-01-09T07:34:27;32.13;;;18.87;;
46653;SDS011;38960;51.074;17.004;2023-01-09T07:36:52;31.53;;;19.03;;
46653;SDS011;38960;51.074;17.004;2023-01-09T07:39:18;32.67;;;19.63;;
46653;SDS011;38960;51.074;17.004;2023-01-09T07:41:43;30.37;;;19.37;;
46653;SDS011;38960;51.074;17.004;2023-01-09T07:44:09;32.10;;;19.53;;
46653;SDS011;38960;51.074;17.004;2023-01-09T07:46:35;33.63;;;18.70;;
46653;SDS011;38960;51.074;17.004;2023-01-09T07:49:01;32.03;;;19.07;;
46653;SDS011;38960;51.074;17.004;2023-01-09T07:51:26;31.00;;;18.87;;
46653;SDS011;38960;51.074;17.004;2023-01-09T07:53:52;29.73;;;19.67;;
46653;SDS011;38960;51.074;17.004;2023-01-09T07:56:18;35.47;;;20.27;;
46653;SDS011;38960;51.074;17.004;2023-01-09T07:58:43;29.50;;;18.90;;
46653;SDS011;38960;51.074;17.004;2023-01-09T08:01:09;34.57;;;20.87;;
46653;SDS011;38960;51.074;17.004;2023-01-09T08:03:34;36.67;;;22.37;;
46653;SDS011;38960;51.074;17.004;2023-01-09T08:06:00;27.63;;;18.57;;
46653;SDS011;38960;51.074;17.004;2023-01-09T08:08:26;33.13;;;20.47;;
46653;SDS011;38960;51.074;17.004;2023-01-09T08:10:52;32.27;;;20.90;;
46653;SDS011;38960;51.074;17.004;2023-01-09T08:13:17;30.07;;;19.47;;
46653;SDS011;38960;51.074;17.004;2023-01-09T08:15:43;32.33;;;21.00;;
46653;SDS011;38960;51.074;17.004;2023-01-09T08:18:08;29.10;;;19.57;;
46653;SDS011;38960;51.074;17.004;2023-01-09T08:20:34;28.23;;;18.40;;
46653;SDS011;38960;51.074;17.004;2023-01-09T08:22:59;30.17;;;19.53;;
46653;SDS011;38960;51.074;17.004;2023-01-09T08:25:25;32.23;;;19.73;;
46653;SDS011;38960;51.074;17.004;2023-01-09T08:27:51;33.43;;;19.77;;
46653;SDS011;38960;51.074;17.004;2023-01-09T08:30:16;30.97;;;20.07;;
46653;SDS011;38960;51.074;17.004;2023-01-09T08:32:42;35.47;;;20.73;;
46653;SDS011;38960;51.074;17.004;2023-01-09T08:35:08;31.20;;;18.97;;
46653;SDS011;38960;51.074;17.004;2023-01-09T08:37:34;32.07;;;20.60;;
46653;SDS011;38960;51.074;17.004;2023-01-09T08:40:00;28.83;;;19.33;;
46653;SDS011;38960;51.074;17.004;2023-01-09T08:42:25;27.63;;;18.30;;
46653;SDS011;38960;51.074;17.004;2023-01-09T08:45:10;28.30;;;18.00;;
46653;SDS011;38960;51.074;17.004;2023-01-09T08:47:54;33.40;;;18.83;;
46653;SDS011;38960;51.074;17.004;2023-01-09T08:50:21;31.00;;;18.73;;
46653;SDS011;38960;51.074;17.004;2023-01-09T08:52:46;30.57;;;18.93;;
46653;SDS011;38960;51.074;17.004;2023-01-09T08:55:12;30.53;;;18.50;;
46653;SDS011;38960;51.074;17.004;2023-01-09T08:57:39;31.40;;;18.50;;
46653;SDS011;38960;51.074;17.004;2023-01-09T09:00:12;33.03;;;18.00;;
46653;SDS011;38960;51.074;17.004;2023-01-09T09:02:38;26.53;;;16.87;;
46653;SDS011;38960;51.074;17.004;2023-01-09T09:05:04;33.27;;;19.77;;
46653;SDS011;38960;51.074;17.004;2023-01-09T09:07:30;32.27;;;18.60;;
46653;SDS011;38960;51.074;17.004;2023-01-09T09:09:55;30.13;;;18.00;;
46653;SDS011;38960;51.074;17.004;2023-01-09T09:12:21;29.57;;;18.63;;
46653;SDS011;38960;51.074;17.004;2023-01-09T09:14:47;29.70;;;17.00;;
46653;SDS011;38960;51.074;17.004;2023-01-09T09:17:31;28.60;;;17.40;;
46653;SDS011;38960;51.074;17.004;2023-01-09T09:19:57;27.00;;;17.97;;
46653;SDS011;38960;51.074;17.004;2023-01-09T09:22:23;30.67;;;17.37;;
46653;SDS011;38960;51.074;17.004;2023-01-09T09:24:49;30.50;;;18.77;;
46653;SDS011;38960;51.074;17.004;2023-01-09T09:27:15;30.37;;;18.37;;
46653;SDS011;38960;51.074;17.004;2023-01-09T09:29:40;28.37;;;18.97;;
46653;SDS011;38960;51.074;17.004;2023-01-09T09:32:06;27.20;;;16.73;;
46653;SDS011;38960;51.074;17.004;2023-01-09T09:34:31;28.20;;;16.87;;
46653;SDS011;38960;51.074;17.004;2023-01-09T09:36:57;25.87;;;16.80;;
46653;SDS011;38960;51.074;17.004;2023-01-09T09:39:22;26.13;;;16.07;;
46653;SDS011;38960;51.074;17.004;2023-01-09T09:51:08;27.60;;;17.77;;
46653;SDS011;38960;51.074;17.004;2023-01-09T09:56:24;32.03;;;20.50;;
46653;SDS011;38960;51.074;17.004;2023-01-09T09:58:53;32.77;;;20.50;;
46653;SDS011;38960;51.074;17.004;2023-01-09T10:03:54;30.50;;;18.13;;
46653;SDS011;38960;51.074;17.004;2023-01-09T10:06:33;30.80;;;17.40;;
46653;SDS011;38960;51.074;17.004;2023-01-09T10:09:05;24.97;;;16.20;;
46653;SDS011;38960;51.074;17.004;2023-01-09T10:11:41;29.20;;;18.08;;
46653;SDS011;38960;51.074;17.004;2023-01-09T10:14:11;27.30;;;17.87;;
46653;SDS011;38960;51.074;17.004;2023-01-09T10:24:52;23.90;;;15.57;;
46653;SDS011;38960;51.074;17.004;2023-01-09T10:27:26;32.40;;;16.83;;
46653;SDS011;38960;51.074;17.004;2023-01-09T10:33:09;27.00;;;16.80;;
46653;SDS011;38960;51.074;17.004;2023-01-09T10:38:19;26.45;;;16.75;;
46653;SDS011;38960;51.074;17.004;2023-01-09T10:40:53;27.63;;;16.90;;
46653;SDS011;38960;51.074;17.004;2023-01-09T10:46:54;25.75;;;16.55;;
46653;SDS011;38960;51.074;17.004;2023-01-09T10:49:21;26.40;;;16.33;;
46653;SDS011;38960;51.074;17.004;2023-01-09T10:51:49;26.38;;;18.00;;
46653;SDS011;38960;51.074;17.004;2023-01-09T10:54:16;26.63;;;15.70;;
46653;SDS011;38960;51.074;17.004;2023-01-09T10:56:52;24.37;;;16.30;;
46653;SDS011;38960;51.074;17.004;2023-01-09T10:59:20;28.45;;;16.60;;
46653;SDS011;38960;51.074;17.004;2023-01-09T11:01:47;31.23;;;16.10;;
46653;SDS011;38960;51.074;17.004;2023-01-09T11:04:22;25.97;;;15.70;;
46653;SDS011;38960;51.074;17.004;2023-01-09T11:07:01;27.00;;;16.13;;
46653;SDS011;38960;51.074;17.004;2023-01-09T11:12:26;26.90;;;16.57;;
46653;SDS011;38960;51.074;17.004;2023-01-09T11:14:53;30.83;;;16.52;;
46653;SDS011;38960;51.074;17.004;2023-01-09T11:17:20;27.10;;;16.53;;
46653;SDS011;38960;51.074;17.004;2023-01-09T11:20:01;25.80;;;16.20;;
46653;SDS011;38960;51.074;17.004;2023-01-09T11:22:28;24.13;;;14.53;;
46653;SDS011;38960;51.074;17.004;2023-01-09T11:25:00;24.60;;;15.60;;
46653;SDS011;38960;51.074;17.004;2023-01-09T11:27:27;26.23;;;15.83;;
46653;SDS011;38960;51.074;17.004;2023-01-09T11:32:38;23.83;;;15.57;;
46653;SDS011;38960;51.074;17.004;2023-01-09T11:35:04;27.30;;;16.17;;
46653;SDS011;38960;51.074;17.004;2023-01-09T11:37:41;24.40;;;16.45;;
46653;SDS011;38960;51.074;17.004;2023-01-09T11:40:13;29.13;;;17.98;;
46653;SDS011;38960;51.074;17.004;2023-01-09T11:42:41;30.90;;;20.08;;
46653;SDS011;38960;51.074;17.004;2023-01-09T11:45:27;28.02;;;17.63;;
46653;SDS011;38960;51.074;17.004;2023-01-09T11:47:54;26.90;;;17.90;;
46653;SDS011;38960;51.074;17.004;2023-01-09T11:50:27;25.17;;;14.95;;
46653;SDS011;38960;51.074;17.004;2023-01-09T11:55:37;22.48;;;14.75;;
46653;SDS011;38960;51.074;17.004;2023-01-09T11:58:03;19.85;;;12.85;;
46653;SDS011;38960;51.074;17.004;2023-01-09T12:00:31;19.27;;;12.27;;
46653;SDS011;38960;51.074;17.004;2023-01-09T12:21:33;9.15;;;6.07;;
46653;SDS011;38960;51.074;17.004;2023-01-09T12:35:31;9.18;;;6.00;;
46653;SDS011;38960;51.074;17.004;2023-01-09T12:48:58;10.30;;;6.90;;
46653;SDS011;38960;51.074;17.004;2023-01-09T12:56:49;10.15;;;6.63;;
46653;SDS011;38960;51.074;17.004;2023-01-09T13:04:59;10.50;;;6.97;;
46653;SDS011;38960;51.074;17.004;2023-01-09T13:07:52;9.02;;;6.28;;
46653;SDS011;38960;51.074;17.004;2023-01-09T13:10:52;10.65;;;6.47;;
46653;SDS011;38960;51.074;17.004;2023-01-09T13:13:24;9.63;;;6.28;;
46653;SDS011;38960;51.074;17.004;2023-01-09T13:15:54;9.65;;;6.45;;
46653;SDS011;38960;51.074;17.004;2023-01-09T13:18:29;7.75;;;5.35;;
46653;SDS011;38960;51.074;17.004;2023-01-09T13:20:55;7.72;;;4.95;;
46653;SDS011;38960;51.074;17.004;2023-01-09T13:25:50;6.57;;;4.30;;
46653;SDS011;38960;51.074;17.004;2023-01-09T13:28:19;7.43;;;4.10;;
46653;SDS011;38960;51.074;17.004;2023-01-09T13:33:45;6.57;;;4.63;;
46653;SDS011;38960;51.074;17.004;2023-01-09T13:36:26;10.23;;;5.20;;
46653;SDS011;38960;51.074;17.004;2023-01-09T13:38:53;7.22;;;4.60;;
46653;SDS011;38960;51.074;17.004;2023-01-09T13:41:19;8.68;;;5.43;;
46653;SDS011;38960;51.074;17.004;2023-01-09T13:44:04;12.18;;;5.68;;
46653;SDS011;38960;51.074;17.004;2023-01-09T13:46:38;10.90;;;5.93;;
46653;SDS011;38960;51.074;17.004;2023-01-09T13:49:27;9.05;;;5.57;;
46653;SDS011;38960;51.074;17.004;2023-01-09T13:55:21;6.28;;;4.75;;
46653;SDS011;38960;51.074;17.004;2023-01-09T14:08:21;9.68;;;6.38;;
46653;SDS011;38960;51.074;17.004;2023-01-09T14:10:48;9.93;;;6.03;;
46653;SDS011;38960;51.074;17.004;2023-01-09T14:16:23;10.63;;;6.47;;
46653;SDS011;38960;51.074;17.004;2023-01-09T14:24:19;11.82;;;6.70;;
46653;SDS011;38960;51.074;17.004;2023-01-09T14:26:48;8.60;;;5.72;;
46653;SDS011;38960;51.074;17.004;2023-01-09T14:34:46;11.48;;;7.53;;
46653;SDS011;38960;51.074;17.004;2023-01-09T14:37:12;10.90;;;7.85;;
46653;SDS011;38960;51.074;17.004;2023-01-09T14:39:39;11.20;;;7.30;;
46653;SDS011;38960;51.074;17.004;2023-01-09T14:42:08;14.25;;;8.20;;
46653;SDS011;38960;51.074;17.004;2023-01-09T14:47:20;11.32;;;6.75;;
46653;SDS011;38960;51.074;17.004;2023-01-09T14:49:54;10.98;;;7.70;;
46653;SDS011;38960;51.074;17.004;2023-01-09T14:52:29;12.85;;;8.23;;
46653;SDS011;38960;51.074;17.004;2023-01-09T14:54:58;12.10;;;7.72;;
46653;SDS011;38960;51.074;17.004;2023-01-09T14:57:28;12.95;;;8.48;;
46653;SDS011;38960;51.074;17.004;2023-01-09T15:00:03;12.93;;;8.25;;
46653;SDS011;38960;51.074;17.004;2023-01-09T15:02:31;14.55;;;7.80;;
46653;SDS011;38960;51.074;17.004;2023-01-09T15:05:00;11.15;;;7.20;;
46653;SDS011;38960;51.074;17.004;2023-01-09T15:07:30;10.90;;;7.00;;
46653;SDS011;38960;51.074;17.004;2023-01-09T15:10:04;10.77;;;7.43;;
46653;SDS011;38960;51.074;17.004;2023-01-09T15:12:31;13.40;;;7.93;;
46653;SDS011;38960;51.074;17.004;2023-01-09T15:14:58;8.48;;;6.20;;
46653;SDS011;38960;51.074;17.004;2023-01-09T15:17:32;9.63;;;6.30;;
46653;SDS011;38960;51.074;17.004;2023-01-09T15:20:00;9.15;;;5.50;;
46653;SDS011;38960;51.074;17.004;2023-01-09T15:22:34;12.73;;;7.72;;
46653;SDS011;38960;51.074;17.004;2023-01-09T15:28:00;14.77;;;9.50;;
46653;SDS011;38960;51.074;17.004;2023-01-09T15:30:28;11.85;;;8.10;;
46653;SDS011;38960;51.074;17.004;2023-01-09T15:35:24;9.98;;;5.88;;
46653;SDS011;38960;51.074;17.004;2023-01-09T15:37:51;7.28;;;5.53;;
46653;SDS011;38960;51.074;17.004;2023-01-09T15:40:19;9.18;;;6.03;;
46653;SDS011;38960;51.074;17.004;2023-01-09T15:42:49;9.97;;;5.57;;
46653;SDS011;38960;51.074;17.004;2023-01-09T15:45:38;7.20;;;5.20;;
46653;SDS011;38960;51.074;17.004;2023-01-09T15:50:50;8.13;;;4.85;;
46653;SDS011;38960;51.074;17.004;2023-01-09T15:53:21;6.55;;;5.30;;
46653;SDS011;38960;51.074;17.004;2023-01-09T15:58:36;5.93;;;4.35;;
46653;SDS011;38960;51.074;17.004;2023-01-09T16:03:49;7.22;;;4.75;;
46653;SDS011;38960;51.074;17.004;2023-01-09T16:06:25;6.65;;;5.03;;
46653;SDS011;38960;51.074;17.004;2023-01-09T16:08:58;8.07;;;5.03;;
46653;SDS011;38960;51.074;17.004;2023-01-09T16:11:29;8.43;;;5.22;;
46653;SDS011;38960;51.074;17.004;2023-01-09T16:13:57;7.05;;;4.45;;
46653;SDS011;38960;51.074;17.004;2023-01-09T16:16:37;7.10;;;5.20;;
46653;SDS011;38960;51.074;17.004;2023-01-09T16:19:02;9.07;;;5.90;;
46653;SDS011;38960;51.074;17.004;2023-01-09T16:21:29;12.45;;;8.05;;
46653;SDS011;38960;51.074;17.004;2023-01-09T16:26:37;12.15;;;8.00;;
46653;SDS011;38960;51.074;17.004;2023-01-09T16:32:13;18.27;;;10.30;;
46653;SDS011;38960;51.074;17.004;2023-01-09T16:34:42;18.58;;;10.85;;
46653;SDS011;38960;51.074;17.004;2023-01-09T16:37:10;19.65;;;11.85;;
46653;SDS011;38960;51.074;17.004;2023-01-09T16:39:37;18.42;;;10.40;;
46653;SDS011;38960;51.074;17.004;2023-01-09T16:42:06;19.00;;;10.50;;
46653;SDS011;38960;51.074;17.004;2023-01-09T16:44:54;17.80;;;10.03;;
46653;SDS011;38960;51.074;17.004;2023-01-09T16:47:19;14.25;;;8.43;;
46653;SDS011;38960;51.074;17.004;2023-01-09T16:49:45;12.07;;;8.02;;
46653;SDS011;38960;51.074;17.004;2023-01-09T16:52:17;12.55;;;7.50;;
46653;SDS011;38960;51.074;17.004;2023-01-09T16:54:42;14.35;;;9.00;;
46653;SDS011;38960;51.074;17.004;2023-01-09T16:57:11;15.00;;;9.75;;
46653;SDS011;38960;51.074;17.004;2023-01-09T16:59:40;14.07;;;9.38;;
46653;SDS011;38960;51.074;17.004;2023-01-09T17:02:12;12.57;;;9.18;;
46653;SDS011;38960;51.074;17.004;2023-01-09T17:04:43;12.25;;;8.32;;
46653;SDS011;38960;51.074;17.004;2023-01-09T17:07:11;10.65;;;7.60;;
46653;SDS011;38960;51.074;17.004;2023-01-09T17:09:40;10.02;;;6.93;;
46653;SDS011;38960;51.074;17.004;2023-01-09T17:12:11;9.80;;;6.13;;
46653;SDS011;38960;51.074;17.004;2023-01-09T17:14:41;7.90;;;5.35;;
46653;SDS011;38960;51.074;17.004;2023-01-09T17:17:09;10.43;;;6.65;;
46653;SDS011;38960;51.074;17.004;2023-01-09T17:19:36;9.00;;;5.82;;
46653;SDS011;38960;51.074;17.004;2023-01-09T17:22:02;10.43;;;6.15;;